Time;durP1;ratioP1;P1;durP2;ratioP2;P2;SDS_P1;SDS_P2;PMS_P1;PMS_P2;Temp;Humidity;BMP_temperature;BMP_pressure;BME280_temperature;BME280_humidity;BME280_pressure;Samples;Min_cycle;Max_cycle;Signal;HPM_P1;HPM_P2
2022/11/14 00:00:29;;;;;;;1.08;0.60;;;;;;;16.62;32.78;101795.09;5058200;28;20028;-47
2022/11/14 00:02:58;;;;;;;0.40;0.40;;;;;;;16.43;32.75;101790.66;5068154;28;20049;-48
2022/11/14 00:05:24;;;;;;;1.10;0.70;;;;;;;16.49;32.79;101792.50;5052158;28;20025;-46
2022/11/14 00:07:51;;;;;;;1.20;0.70;;;;;;;16.40;33.96;101796.53;5051904;28;20038;-46
2022/11/14 00:10:17;;;;;;;2.25;1.00;;;;;;;16.40;34.07;101793.84;5051647;28;20401;-49
2022/11/14 00:12:43;;;;;;;2.03;1.00;;;;;;;16.37;33.94;101794.25;5060355;28;20782;-48
2022/11/14 00:15:10;;;;;;;1.27;0.60;;;;;;;16.21;34.43;101781.31;5070177;28;20103;-45
2022/11/14 00:17:37;;;;;;;0.93;0.70;;;;;;;16.23;34.09;101782.75;5051416;28;20036;-48
2022/11/14 00:20:05;;;;;;;3.20;2.15;;;;;;;16.15;34.18;101793.00;5051545;28;20029;-48
2022/11/14 00:22:31;;;;;;;1.95;1.20;;;;;;;16.17;35.44;101790.91;5072110;28;20024;-48
2022/11/14 00:24:58;;;;;;;4.45;2.88;;;;;;;15.99;36.42;101788.94;5075825;28;20028;-48
2022/11/14 00:27:24;;;;;;;2.55;1.10;;;;;;;15.99;37.10;101783.56;5075704;28;20032;-48
2022/11/14 00:29:51;;;;;;;1.23;1.05;;;;;;;16.00;36.79;101787.94;5075694;28;20476;-46
2022/11/14 00:32:18;;;;;;;1.55;0.95;;;;;;;15.96;37.48;101789.41;5076039;28;20115;-44
2022/11/14 00:34:45;;;;;;;2.20;1.20;;;;;;;15.84;38.14;101786.59;5057705;28;20086;-44
2022/11/14 00:37:11;;;;;;;2.30;1.00;;;;;;;15.75;38.91;101782.47;5075621;28;20439;-45
2022/11/14 00:39:37;;;;;;;1.35;0.60;;;;;;;15.52;39.38;101783.81;5075507;28;20095;-44
2022/11/14 00:42:03;;;;;;;3.10;1.10;;;;;;;15.65;39.80;101779.41;5075613;28;20033;-46
2022/11/14 00:44:30;;;;;;;1.13;0.90;;;;;;;15.63;40.50;101790.44;5075517;28;20392;-45
2022/11/14 00:46:56;;;;;;;4.65;1.00;;;;;;;15.57;40.95;101783.19;5066839;28;20545;-44
2022/11/14 00:49:22;;;;;;;1.10;0.70;;;;;;;15.33;41.73;101790.16;5055244;28;20029;-46
2022/11/14 00:51:48;;;;;;;2.55;0.70;;;;;;;15.15;42.38;101782.72;5054973;28;20037;-44
2022/11/14 00:54:14;;;;;;;3.10;1.50;;;;;;;14.98;43.07;101785.06;5054353;28;20465;-45
2022/11/14 00:56:41;;;;;;;1.58;0.85;;;;;;;14.97;43.19;101796.91;5054828;28;20033;-45
2022/11/14 00:59:07;;;;;;;1.98;0.80;;;;;;;15.01;43.12;101786.53;5054643;28;20063;-44
2022/11/14 01:01:33;;;;;;;1.75;0.98;;;;;;;14.90;43.84;101785.31;5054667;28;20404;-44
2022/11/14 01:03:59;;;;;;;2.15;0.80;;;;;;;14.89;44.20;101789.06;5054776;28;20374;-46
2022/11/14 01:06:26;;;;;;;2.15;1.30;;;;;;;14.89;44.81;101791.75;5054719;28;20033;-45
2022/11/14 01:08:52;;;;;;;1.27;0.95;;;;;;;14.74;45.63;101791.16;5054266;28;20098;-45
2022/11/14 01:11:21;;;;;;;3.70;1.08;;;;;;;14.66;46.31;101783.31;5054378;28;20043;-44
2022/11/14 01:13:47;;;;;;;2.90;0.65;;;;;;;14.58;46.50;101802.38;5053390;28;20040;-44
2022/11/14 01:16:14;;;;;;;1.95;0.60;;;;;;;14.63;46.67;101795.31;5054782;28;20025;-43
2022/11/14 01:18:40;;;;;;;1.75;0.70;;;;;;;14.49;47.26;101805.28;5071856;28;20484;-44
2022/11/14 01:21:09;;;;;;;1.35;0.50;;;;;;;14.39;47.47;101799.47;5074790;28;20506;-44
2022/11/14 01:23:36;;;;;;;2.70;0.80;;;;;;;14.33;47.57;101804.84;5074641;28;20389;-45
2022/11/14 01:26:08;;;;;;;2.90;0.90;;;;;;;14.31;47.45;101806.91;5074552;28;20023;-47
2022/11/14 01:28:34;;;;;;;1.70;0.90;;;;;;;14.23;47.88;101803.41;5074218;28;20377;-43
2022/11/14 01:31:26;;;;;;;2.83;0.70;;;;;;;14.09;48.06;101796.31;5073949;28;20465;-45
2022/11/14 01:33:53;;;;;;;0.93;0.70;;;;;;;13.98;48.50;101803.16;5062404;28;20037;-46
2022/11/14 01:36:20;;;;;;;0.75;0.55;;;;;;;13.94;49.04;101804.63;5061468;28;20029;-44
2022/11/14 01:38:50;;;;;;;1.70;1.00;;;;;;;13.81;51.07;101809.13;5069713;28;20017;-47
2022/11/14 01:41:16;;;;;;;4.95;0.90;;;;;;;13.56;54.39;101814.25;5062922;28;20017;-48
2022/11/14 01:43:43;;;;;;;1.83;0.70;;;;;;;13.59;55.55;101813.81;5058320;28;20017;-47
2022/11/14 01:46:29;;;;;;;0.95;0.60;;;;;;;13.34;57.93;101814.38;5068956;28;20123;-46
2022/11/14 01:49:33;;;;;;;2.88;1.00;;;;;;;13.47;59.04;101819.78;5071627;28;20081;-45
2022/11/14 01:52:05;;;;;;;1.70;0.88;;;;;;;13.12;60.19;101818.16;5058965;28;20029;-45
2022/11/14 01:54:44;;;;;;;5.47;0.90;;;;;;;13.15;60.78;101834.69;5055642;28;20147;-48
2022/11/14 01:57:13;;;;;;;1.55;0.98;;;;;;;13.22;61.33;101842.84;5053965;28;20033;-47
2022/11/14 01:59:43;;;;;;;5.60;1.38;;;;;;;13.11;61.75;101838.00;5053787;28;20044;-48
2022/11/14 02:02:21;;;;;;;3.58;1.17;;;;;;;12.97;62.27;101842.47;5053784;28;20492;-48
2022/11/14 02:05:10;;;;;;;2.45;1.33;;;;;;;13.05;61.86;101847.69;5053805;28;20056;-47
2022/11/14 02:07:39;;;;;;;3.92;0.90;;;;;;;12.69;64.22;101845.16;5070542;28;20036;-46
2022/11/14 02:10:16;;;;;;;3.05;1.20;;;;;;;12.61;64.56;101848.84;5073303;28;20029;-49
2022/11/14 02:12:42;;;;;;;4.32;1.25;;;;;;;12.68;64.57;101860.44;5073701;28;20029;-49
2022/11/14 02:15:09;;;;;;;1.75;1.08;;;;;;;12.79;65.08;101867.16;5073544;28;20032;-50
2022/11/14 02:17:35;;;;;;;3.72;1.08;;;;;;;12.67;64.98;101869.53;5072275;28;20105;-48
2022/11/14 02:20:11;;;;;;;4.80;1.00;;;;;;;12.82;65.15;101861.38;5072890;28;20043;-48
2022/11/14 02:22:39;;;;;;;1.20;0.90;;;;;;;12.75;64.91;101865.03;5056699;28;20108;-49
2022/11/14 02:25:07;;;;;;;2.47;1.05;;;;;;;12.61;65.46;101866.81;5073276;28;20028;-49
2022/11/14 02:27:35;;;;;;;4.18;1.55;;;;;;;12.28;65.84;101875.41;5073130;28;20033;-47
2022/11/14 02:30:11;;;;;;;2.45;1.77;;;;;;;11.91;66.02;101881.81;5058257;28;20172;-46
2022/11/14 02:32:37;;;;;;;4.60;2.00;;;;;;;11.81;65.69;101875.88;5060267;28;20116;-48
2022/11/14 02:35:03;;;;;;;3.95;2.20;;;;;;;11.62;66.00;101880.84;5053459;28;20102;-49
2022/11/14 02:37:30;;;;;;;4.22;2.20;;;;;;;11.70;65.60;101887.94;5053106;28;20423;-49
2022/11/14 02:39:56;;;;;;;3.67;2.33;;;;;;;11.59;65.54;101891.09;5056084;28;20085;-47
2022/11/14 02:42:22;;;;;;;5.68;2.35;;;;;;;10.86;68.10;101889.22;5073025;28;20476;-48
2022/11/14 02:44:48;;;;;;;2.63;2.03;;;;;;;10.68;68.62;101889.56;5061339;28;20488;-45
2022/11/14 02:47:14;;;;;;;4.75;2.00;;;;;;;11.08;67.04;101881.13;5061848;28;20024;-49
2022/11/14 02:49:41;;;;;;;4.57;1.70;;;;;;;11.03;66.92;101896.09;5064362;28;20054;-50
2022/11/14 02:52:07;;;;;;;6.40;1.38;;;;;;;10.94;67.31;101895.34;5059817;28;20527;-46
2022/11/14 02:54:33;;;;;;;3.92;1.52;;;;;;;11.29;66.23;101896.47;5072473;28;20021;-49
2022/11/14 02:56:59;;;;;;;3.30;1.50;;;;;;;11.43;65.75;101891.28;5072440;28;20017;-48
2022/11/14 02:59:26;;;;;;;4.47;1.45;;;;;;;11.33;65.91;101896.94;5072103;28;20032;-46
2022/11/14 03:01:52;;;;;;;3.10;1.40;;;;;;;11.00;67.61;101891.94;5060985;28;20111;-47
2022/11/14 03:04:18;;;;;;;7.00;1.38;;;;;;;10.91;67.58;101886.84;5052652;28;20028;-44
2022/11/14 03:06:44;;;;;;;1.90;1.10;;;;;;;10.59;68.13;101894.16;5052501;28;20021;-45
2022/11/14 03:09:11;;;;;;;3.95;1.70;;;;;;;10.53;68.57;101892.19;5052288;28;20079;-49
2022/11/14 03:11:38;;;;;;;3.63;1.50;;;;;;;10.63;68.07;101891.94;5069582;28;20150;-46
2022/11/14 03:14:04;;;;;;;4.75;1.45;;;;;;;10.41;68.73;101894.47;5064185;28;20094;-46
2022/11/14 03:16:31;;;;;;;3.38;1.63;;;;;;;10.19;69.65;101892.59;5066269;28;20396;-48
2022/11/14 03:18:57;;;;;;;4.88;1.58;;;;;;;10.42;68.56;101897.97;5058094;28;20036;-47
2022/11/14 03:21:23;;;;;;;3.72;1.50;;;;;;;10.47;67.96;101900.94;5054317;28;20107;-45
2022/11/14 03:23:49;;;;;;;3.75;1.58;;;;;;;10.45;67.80;101892.28;5072101;28;20020;-49
2022/11/14 03:26:16;;;;;;;4.32;1.40;;;;;;;10.44;67.63;101890.63;5056667;28;20119;-45
2022/11/14 03:28:42;;;;;;;3.70;1.90;;;;;;;10.43;67.16;101895.09;5051910;28;20477;-47
2022/11/14 03:31:11;;;;;;;6.25;2.22;;;;;;;10.22;67.71;101894.94;5057776;28;20033;-48
2022/11/14 03:33:38;;;;;;;4.07;2.25;;;;;;;10.33;66.81;101894.53;5059185;28;20036;-50
2022/11/14 03:36:05;;;;;;;3.75;2.00;;;;;;;10.02;67.97;101899.88;5089892;22;20056;-49
2022/11/14 03:38:32;;;;;;;3.70;2.08;;;;;;;9.73;68.54;101890.69;5090760;28;20182;-47
2022/11/14 03:40:59;;;;;;;4.25;2.60;;;;;;;9.59;68.96;101894.09;5092106;28;20032;-45
2022/11/14 03:43:29;;;;;;;4.57;2.08;;;;;;;9.53;69.63;101903.63;5092060;28;20032;-45
2022/11/14 03:45:58;;;;;;;3.13;1.90;;;;;;;9.75;69.03;101891.34;5091711;28;20024;-49
2022/11/14 03:48:24;;;;;;;4.82;2.33;;;;;;;8.99;71.54;101892.78;5088969;28;20057;-49
2022/11/14 03:50:50;;;;;;;4.25;2.50;;;;;;;8.89;72.28;101893.97;5079761;28;20028;-50
2022/11/14 03:53:16;;;;;;;3.35;2.40;;;;;;;8.75;73.01;101891.97;5071763;28;20028;-49
2022/11/14 03:55:43;;;;;;;5.22;2.25;;;;;;;8.88;72.15;101890.47;5071427;28;20511;-47
2022/11/14 03:58:09;;;;;;;2.85;1.85;;;;;;;8.88;71.95;101881.59;5072007;28;20064;-46
2022/11/14 04:00:36;;;;;;;3.20;1.90;;;;;;;8.51;72.87;101888.31;5071325;28;20097;-47
2022/11/14 04:03:02;;;;;;;6.47;1.88;;;;;;;8.73;72.03;101889.47;5071351;28;20021;-48
2022/11/14 04:05:28;;;;;;;3.25;2.00;;;;;;;8.70;71.64;101885.28;5073749;28;20020;-47
2022/11/14 04:07:54;;;;;;;3.47;1.80;;;;;;;8.57;72.35;101887.66;5071465;28;20060;-49
2022/11/14 04:10:21;;;;;;;3.92;1.90;;;;;;;8.72;71.46;101888.66;5075930;28;20468;-49
2022/11/14 04:12:51;;;;;;;3.47;1.35;;;;;;;8.50;72.02;101889.31;5092135;28;20028;-46
2022/11/14 04:15:19;;;;;;;2.63;1.60;;;;;;;8.62;71.26;101898.66;5091764;28;20022;-49
2022/11/14 04:17:46;;;;;;;3.90;2.10;;;;;;;8.71;70.78;101905.63;5084909;28;20016;-46
2022/11/14 04:20:13;;;;;;;4.28;2.03;;;;;;;8.78;70.40;101896.97;5086884;28;20055;-45
2022/11/14 04:22:40;;;;;;;3.67;2.05;;;;;;;8.79;70.14;101910.16;5091101;28;20032;-46
2022/11/14 04:25:07;;;;;;;2.20;1.38;;;;;;;8.80;69.97;101906.47;5091791;28;20111;-45
2022/11/14 04:27:34;;;;;;;3.03;1.50;;;;;;;8.85;69.47;101908.66;5091872;28;20451;-46
2022/11/14 04:30:00;;;;;;;3.42;1.70;;;;;;;8.86;69.28;101908.47;5089613;28;20380;-45
2022/11/14 04:32:26;;;;;;;3.15;1.38;;;;;;;8.54;70.74;101909.31;5091519;28;20467;-45
2022/11/14 04:34:52;;;;;;;3.20;1.58;;;;;;;8.26;71.81;101908.75;5091230;28;20043;-47
2022/11/14 04:37:18;;;;;;;2.47;1.42;;;;;;;8.24;72.10;101915.25;5089841;28;20460;-45
2022/11/14 04:39:45;;;;;;;4.15;1.50;;;;;;;8.61;70.97;101912.16;5081173;28;20027;-45
2022/11/14 04:42:11;;;;;;;4.68;1.85;;;;;;;8.34;71.48;101924.78;5071128;28;20060;-45
2022/11/14 04:44:37;;;;;;;1.80;1.33;;;;;;;8.15;71.81;101917.06;5080076;28;20487;-45
2022/11/14 04:47:03;;;;;;;3.42;1.30;;;;;;;8.25;71.60;101916.94;5091088;28;20035;-53
2022/11/14 04:49:30;;;;;;;3.67;1.50;;;;;;;8.13;71.60;101913.75;5077420;28;20035;-48
2022/11/14 04:51:57;;;;;;;3.03;1.75;;;;;;;7.76;73.08;101919.47;5073100;28;20025;-47
2022/11/14 04:54:23;;;;;;;3.17;1.70;;;;;;;8.10;72.07;101925.56;5084921;28;20024;-48
2022/11/14 04:56:49;;;;;;;4.00;1.70;;;;;;;7.83;72.83;101913.34;5071492;28;20029;-47
2022/11/14 04:59:15;;;;;;;5.75;1.75;;;;;;;7.59;74.08;101916.72;5079077;28;20074;-47
2022/11/14 05:01:41;;;;;;;5.35;1.40;;;;;;;8.03;72.26;101921.03;5074871;28;20031;-49
2022/11/14 05:04:08;;;;;;;3.08;1.20;;;;;;;8.07;71.73;101925.91;5069736;28;20492;-48
2022/11/14 05:06:34;;;;;;;3.00;1.17;;;;;;;7.70;72.56;101922.78;5070734;28;20032;-46
2022/11/14 05:09:00;;;;;;;3.13;1.20;;;;;;;7.69;72.44;101929.94;5073335;28;20028;-49
2022/11/14 05:11:26;;;;;;;2.30;1.33;;;;;;;7.82;72.05;101921.47;5074509;28;20077;-47
2022/11/14 05:13:52;;;;;;;2.15;1.17;;;;;;;7.85;71.36;101916.66;5072975;28;20044;-48
2022/11/14 05:16:19;;;;;;;2.72;1.10;;;;;;;7.82;71.24;101916.97;5073946;28;20385;-47
2022/11/14 05:18:45;;;;;;;2.22;0.75;;;;;;;7.80;71.37;101913.66;5074052;28;20032;-52
2022/11/14 05:21:15;;;;;;;3.20;1.05;;;;;;;7.85;70.97;101919.34;5075368;28;20504;-51
2022/11/14 05:23:41;;;;;;;2.88;1.40;;;;;;;7.79;70.86;101922.66;5074669;28;20036;-49
2022/11/14 05:26:10;;;;;;;2.50;1.33;;;;;;;7.92;70.00;101927.50;5074254;28;20024;-49
2022/11/14 05:28:37;;;;;;;2.60;1.30;;;;;;;7.70;70.16;101928.09;5072715;28;20036;-47
2022/11/14 05:31:07;;;;;;;3.88;1.30;;;;;;;7.59;70.36;101931.88;5073989;28;20032;-47
2022/11/14 05:33:34;;;;;;;2.75;1.20;;;;;;;7.46;70.58;101927.00;5073346;28;20052;-47
2022/11/14 05:36:05;;;;;;;3.50;1.33;;;;;;;7.47;70.01;101931.34;5075520;28;20047;-47
2022/11/14 05:38:32;;;;;;;5.22;1.20;;;;;;;7.34;70.71;101933.59;5072195;28;20071;-47
2022/11/14 05:40:59;;;;;;;1.95;1.10;;;;;;;7.37;70.12;101936.75;5073812;28;20108;-47
2022/11/14 05:43:28;;;;;;;1.83;0.90;;;;;;;7.28;70.64;101942.22;5074882;28;20499;-46
2022/11/14 05:45:59;;;;;;;1.30;0.90;;;;;;;6.92;71.32;101944.13;5094445;28;20020;-47
2022/11/14 05:48:25;;;;;;;1.50;0.80;;;;;;;6.89;71.61;101934.66;5083270;28;20035;-47
2022/11/14 05:50:55;;;;;;;6.22;1.38;;;;;;;7.01;71.09;101941.38;5073202;28;20060;-47
2022/11/14 05:53:22;;;;;;;2.75;1.02;;;;;;;6.59;72.44;101938.53;5071740;28;20029;-49
2022/11/14 05:55:48;;;;;;;3.40;1.23;;;;;;;6.23;74.07;101943.88;5074159;28;20024;-50
2022/11/14 05:58:14;;;;;;;3.45;2.08;;;;;;;6.14;74.59;101939.44;5073428;28;20071;-47
2022/11/14 06:00:40;;;;;;;8.98;2.10;;;;;;;6.02;75.15;101946.78;5076575;28;20535;-49
2022/11/14 06:03:06;;;;;;;2.50;1.50;;;;;;;6.02;75.30;101941.47;5093588;28;20028;-47
2022/11/14 06:05:34;;;;;;;2.70;1.58;;;;;;;6.08;74.99;101938.22;5089636;28;20024;-47
2022/11/14 06:08:02;;;;;;;4.05;1.75;;;;;;;6.29;73.94;101953.06;5085362;28;20040;-47
2022/11/14 06:10:29;;;;;;;3.85;1.90;;;;;;;6.49;73.00;101953.75;5091641;28;20077;-47
2022/11/14 06:12:55;;;;;;;2.40;1.60;;;;;;;6.57;72.39;101954.66;5072751;28;20103;-48
2022/11/14 06:15:21;;;;;;;5.88;1.45;;;;;;;6.59;72.04;101958.00;5072610;28;20138;-48
2022/11/14 06:17:47;;;;;;;1.85;1.35;;;;;;;6.63;71.71;101960.38;5073773;28;20029;-50
2022/11/14 06:20:14;;;;;;;1.00;0.70;;;;;;;6.24;72.68;101961.47;5074135;28;20078;-47
2022/11/14 06:22:41;;;;;;;1.90;0.82;;;;;;;6.04;73.62;101952.78;5072304;28;20107;-47
2022/11/14 06:25:08;;;;;;;1.73;0.60;;;;;;;6.29;72.85;101958.38;5074221;28;20094;-47
2022/11/14 06:27:35;;;;;;;0.85;0.70;;;;;;;6.49;72.02;101964.38;5072418;28;20040;-50
2022/11/14 06:30:01;;;;;;;1.75;0.93;;;;;;;6.35;72.41;101968.41;5071381;28;20469;-47
2022/11/14 06:32:27;;;;;;;1.52;0.80;;;;;;;6.34;72.65;101966.75;5072548;28;20051;-48
2022/11/14 06:34:54;;;;;;;2.90;0.90;;;;;;;6.57;71.84;101967.13;5077554;28;20161;-48
2022/11/14 06:37:20;;;;;;;2.17;0.73;;;;;;;6.59;71.71;101965.97;5076365;28;20116;-48
2022/11/14 06:39:46;;;;;;;1.38;0.80;;;;;;;6.19;73.13;101962.91;5080339;28;20031;-47
2022/11/14 06:42:15;;;;;;;4.20;0.90;;;;;;;5.83;74.79;101957.50;5090960;28;20032;-47
2022/11/14 06:44:41;;;;;;;0.85;0.70;;;;;;;5.96;74.48;101950.03;5087534;28;20048;-48
2022/11/14 06:47:08;;;;;;;1.38;0.60;;;;;;;5.71;74.95;101959.50;5090500;28;20384;-48
2022/11/14 06:49:34;;;;;;;1.25;0.60;;;;;;;5.68;75.49;101954.50;5090266;28;20492;-48
2022/11/14 06:52:00;;;;;;;1.63;0.70;;;;;;;6.05;74.16;101957.13;5092959;28;20020;-50
2022/11/14 06:54:26;;;;;;;1.08;0.70;;;;;;;6.13;73.61;101958.22;5091172;28;20024;-48
2022/11/14 06:56:52;;;;;;;1.73;0.85;;;;;;;5.89;74.01;101962.22;5083406;28;20027;-47
2022/11/14 06:59:19;;;;;;;4.38;1.00;;;;;;;5.49;75.52;101955.38;5092232;28;20020;-48
2022/11/14 07:01:45;;;;;;;1.45;0.70;;;;;;;5.50;75.31;101965.06;5091329;28;20911;-50
2022/11/14 07:04:11;;;;;;;3.00;0.70;;;;;;;5.61;74.85;101960.50;5092563;28;20032;-48
2022/11/14 07:06:37;;;;;;;2.78;0.90;;;;;;;5.34;75.45;101959.50;5088686;28;20032;-50
2022/11/14 07:09:04;;;;;;;1.45;0.93;;;;;;;5.21;76.21;101953.66;5091292;28;20089;-49
2022/11/14 07:11:30;;;;;;;1.75;1.00;;;;;;;5.30;76.31;101952.81;5088676;28;20031;-50
2022/11/14 07:14:01;;;;;;;2.03;0.90;;;;;;;5.34;76.05;101958.69;5092337;28;20043;-47
2022/11/14 07:16:34;;;;;;;1.08;0.80;;;;;;;5.67;75.33;101957.31;5088170;28;20026;-50
2022/11/14 07:19:01;;;;;;;1.05;0.80;;;;;;;5.83;74.57;101952.19;5091694;28;20032;-47
2022/11/14 07:21:29;;;;;;;1.25;0.73;;;;;;;5.76;75.12;101948.44;5090593;28;20455;-50
2022/11/14 07:23:56;;;;;;;2.22;0.85;;;;;;;5.79;75.12;101959.63;5090931;28;20032;-48
2022/11/14 07:26:23;;;;;;;1.67;1.00;;;;;;;5.83;75.31;101960.16;5090310;28;20020;-47
2022/11/14 07:28:49;;;;;;;2.40;1.10;;;;;;;5.92;74.99;101959.28;5088613;28;20073;-47
2022/11/14 07:31:17;;;;;;;2.03;0.90;;;;;;;5.57;76.81;101958.16;5072139;28;20555;-49
2022/11/14 07:33:44;;;;;;;2.47;1.13;;;;;;;5.50;77.15;101954.44;5072698;28;20047;-50
2022/11/14 07:36:12;;;;;;;1.92;1.08;;;;;;;5.45;77.84;101955.84;5090339;28;20127;-49
2022/11/14 07:38:39;;;;;;;1.90;1.25;;;;;;;5.42;78.08;101953.47;5089836;28;20027;-47
2022/11/14 07:41:16;;;;;;;3.05;1.08;;;;;;;5.32;79.03;101958.81;5089669;28;20035;-46
2022/11/14 07:43:42;;;;;;;1.52;0.90;;;;;;;5.15;79.91;101954.25;5072892;28;20441;-46
2022/11/14 07:46:14;;;;;;;2.28;1.05;;;;;;;5.35;79.17;101950.56;5089739;28;20038;-49
2022/11/14 07:48:41;;;;;;;4.75;1.48;;;;;;;5.59;78.57;101949.22;5090106;28;20484;-46
2022/11/14 07:51:13;;;;;;;3.35;1.30;;;;;;;5.71;78.18;101945.38;5089687;28;20481;-49
2022/11/14 07:53:39;;;;;;;2.42;1.00;;;;;;;5.71;78.59;101943.56;5092059;28;20024;-46
2022/11/14 07:56:10;;;;;;;2.75;1.02;;;;;;;6.04;77.31;101944.81;5089926;28;20034;-49
2022/11/14 07:58:40;;;;;;;3.35;1.27;;;;;;;5.99;77.52;101947.06;5088313;28;20035;-47
2022/11/14 08:01:09;;;;;;;2.97;1.10;;;;;;;5.74;78.70;101940.63;5089289;28;20545;-46
2022/11/14 08:03:35;;;;;;;2.63;1.83;;;;;;;5.48;79.59;101953.72;5090212;28;20034;-47
2022/11/14 08:06:11;;;;;;;4.40;2.28;;;;;;;5.39;79.94;101951.13;5089433;28;20055;-47
2022/11/14 08:08:37;;;;;;;;;;;;;;;5.08;81.59;101950.50;5090140;28;20031;-46
2022/11/14 08:11:03;;;;;;;5.03;1.88;;;;;;;5.00;82.49;101936.13;5089615;28;19985;-47
2022/11/14 08:13:30;;;;;;;7.18;2.20;;;;;;;5.06;82.33;101942.69;5090339;28;20033;-47
2022/11/14 08:15:58;;;;;;;5.57;2.80;;;;;;;5.09;82.25;101949.50;5089388;28;20118;-47
2022/11/14 08:18:25;;;;;;;13.20;3.08;;;;;;;4.87;83.02;101942.69;5089239;28;20035;-46
2022/11/14 08:20:51;;;;;;;9.20;2.60;;;;;;;4.81;83.37;101938.78;5088999;28;20165;-47
2022/11/14 08:23:17;;;;;;;2.67;1.70;;;;;;;4.81;83.39;101936.16;5089694;28;20020;-46
2022/11/14 08:25:43;;;;;;;4.20;1.52;;;;;;;4.73;83.63;101930.72;5089110;28;20024;-49
2022/11/14 08:28:09;;;;;;;3.65;1.25;;;;;;;4.80;83.59;101931.00;5089460;28;20480;-46
2022/11/14 08:30:36;;;;;;;2.05;1.10;;;;;;;4.83;83.29;101915.63;5089543;28;20035;-46
2022/11/14 08:33:04;;;;;;;2.70;1.25;;;;;;;4.81;82.95;101922.88;5086733;28;20060;-46
2022/11/14 08:35:31;;;;;;;2.75;1.00;;;;;;;4.76;83.50;101914.50;5089431;28;20044;-49
2022/11/14 08:37:59;;;;;;;3.42;1.13;;;;;;;4.78;83.56;101909.09;5089358;28;20035;-49
2022/11/14 08:40:25;;;;;;;2.35;0.90;;;;;;;4.78;83.54;101917.88;5089643;28;20390;-46
2022/11/14 08:42:51;;;;;;;2.13;1.20;;;;;;;4.69;83.32;101913.41;5088107;28;20123;-46
2022/11/14 08:45:18;;;;;;;3.28;1.00;;;;;;;4.73;83.07;101928.91;5092602;28;20521;-46
2022/11/14 08:47:51;;;;;;;1.63;0.90;;;;;;;4.79;82.62;101927.50;5093288;28;20036;-48
2022/11/14 08:50:17;;;;;;;3.42;1.00;;;;;;;4.96;82.19;101937.38;5093740;28;20122;-48
2022/11/14 08:52:49;;;;;;;2.30;0.90;;;;;;;4.89;81.80;101933.63;5091727;28;20024;-46
2022/11/14 08:55:16;;;;;;;2.25;0.73;;;;;;;4.96;81.53;101929.44;5093883;28;20414;-49
2022/11/14 08:57:42;;;;;;;1.83;0.95;;;;;;;5.12;80.90;101925.34;5095217;28;20446;-46
2022/11/14 09:00:09;;;;;;;2.15;1.00;;;;;;;5.18;80.06;101927.44;5101316;22;20500;-46
2022/11/14 09:02:35;;;;;;;2.42;0.80;;;;;;;5.29;79.90;101937.88;5090696;28;20043;-47
2022/11/14 09:05:01;;;;;;;3.72;0.77;;;;;;;5.06;79.99;101928.56;5093499;28;20055;-48
2022/11/14 09:07:27;;;;;;;2.72;1.00;;;;;;;4.76;80.94;101939.22;5093422;28;20028;-46
2022/11/14 09:09:53;;;;;;;1.17;0.60;;;;;;;4.60;81.95;101941.59;5093337;28;20432;-47
2022/11/14 09:12:20;;;;;;;2.30;0.90;;;;;;;4.71;81.36;101937.97;5090586;28;20031;-46
2022/11/14 09:14:46;;;;;;;3.90;1.00;;;;;;;4.89;80.76;101941.59;5074678;28;20020;-46
2022/11/14 09:17:12;;;;;;;3.10;0.93;;;;;;;5.08;80.25;101945.19;5082617;28;20031;-47
2022/11/14 09:19:38;;;;;;;2.83;0.85;;;;;;;5.09;79.58;101949.50;5087725;28;20081;-47
2022/11/14 09:22:04;;;;;;;0.75;0.65;;;;;;;5.21;79.36;101948.34;5093323;28;20036;-46
2022/11/14 09:24:30;;;;;;;1.48;0.80;;;;;;;5.25;78.70;101947.94;5092577;28;20115;-47
2022/11/14 09:26:57;;;;;;;2.53;0.60;;;;;;;5.33;78.25;101955.19;5093376;28;20052;-47
2022/11/14 09:29:23;;;;;;;2.58;0.93;;;;;;;5.34;77.92;101950.72;5092825;28;20028;-48
2022/11/14 09:31:51;;;;;;;1.63;0.90;;;;;;;5.40;77.32;101958.09;5076553;28;20024;-48
2022/11/14 09:34:17;;;;;;;1.27;0.93;;;;;;;5.38;77.38;101960.88;5093463;28;20035;-49
2022/11/14 09:36:43;;;;;;;2.17;0.77;;;;;;;5.49;76.83;101962.53;5092721;28;20059;-50
2022/11/14 09:39:09;;;;;;;1.80;0.80;;;;;;;5.48;76.22;101961.69;5092289;28;20032;-50
2022/11/14 09:42:14;;;;;;;2.25;0.80;;;;;;;5.51;75.93;101964.06;5091800;28;20463;-50
2022/11/14 09:44:51;;;;;;;2.00;0.90;;;;;;;5.66;74.79;101961.75;5049260;28;20096;-48
2022/11/14 09:47:26;;;;;;;3.05;0.90;;;;;;;5.79;73.65;101964.94;5073881;28;20047;-48
2022/11/14 09:50:00;;;;;;;2.53;0.93;;;;;;;5.64;74.20;101976.19;5089343;28;20028;-48
2022/11/14 09:52:38;;;;;;;1.52;0.75;;;;;;;5.56;74.45;101977.75;5091845;28;20024;-50
2022/11/14 09:55:19;;;;;;;2.00;0.73;;;;;;;5.40;74.56;101972.22;5092090;28;20184;-48
2022/11/14 09:57:45;;;;;;;2.72;0.70;;;;;;;4.87;76.18;101974.53;5075580;28;20107;-50
2022/11/14 10:00:14;;;;;;;0.90;0.60;;;;;;;4.88;76.36;101981.50;5086915;28;20016;-51
2022/11/14 10:02:53;;;;;;;2.28;0.80;;;;;;;4.33;78.62;101976.75;5073933;28;20074;-49
2022/11/14 10:05:19;;;;;;;2.47;0.80;;;;;;;4.12;80.16;101973.38;5074281;28;20067;-48
2022/11/14 10:08:19;;;;;;;1.50;0.80;;;;;;;4.17;80.44;101947.31;5072925;28;20454;-50
2022/11/14 10:10:48;;;;;;;2.13;0.75;;;;;;;4.10;81.14;101930.25;5090902;28;20325;-50
2022/11/14 10:13:56;;;;;;;2.33;1.00;;;;;;;4.21;80.77;101930.13;5086921;28;20028;-49
2022/11/14 10:16:39;;;;;;;2.00;0.70;;;;;;;4.31;79.91;101925.69;5070724;28;20059;-50
2022/11/14 10:19:24;;;;;;;3.15;0.70;;;;;;;4.18;79.88;101939.22;5092905;28;20103;-47
2022/11/14 10:22:19;;;;;;;1.70;0.70;;;;;;;4.58;78.46;101953.34;5074448;28;20028;-47
2022/11/14 10:24:56;;;;;;;1.20;0.70;;;;;;;4.80;77.41;101957.50;5061930;28;20028;-47
2022/11/14 10:27:30;;;;;;;1.85;0.98;;;;;;;4.75;77.36;101961.41;5091376;28;20032;-50
2022/11/14 10:30:09;;;;;;;1.48;0.75;;;;;;;4.76;77.30;101964.91;5087766;28;20027;-50
2022/11/14 10:32:59;;;;;;;1.67;0.70;;;;;;;4.97;76.24;101970.91;5074110;28;20028;-47
2022/11/14 10:35:33;;;;;;;3.58;1.00;;;;;;;4.98;76.34;101983.19;5087323;28;20048;-46
2022/11/14 10:38:23;;;;;;;1.83;1.13;;;;;;;4.99;77.13;101979.53;5076500;28;20506;-47
2022/11/14 10:40:58;;;;;;;2.55;1.27;;;;;;;4.74;79.11;101970.34;5091165;28;20035;-47
2022/11/14 10:43:49;;;;;;;1.92;1.00;;;;;;;4.77;79.33;101969.22;5086544;28;20040;-48
2022/11/14 10:46:21;;;;;;;2.03;1.23;;;;;;;4.86;78.65;101964.91;5069220;28;20434;-47
2022/11/14 10:48:49;;;;;;;3.28;1.00;;;;;;;4.94;77.96;101952.63;5089805;28;20036;-49
2022/11/14 10:51:33;;;;;;;1.92;1.10;;;;;;;4.83;78.77;101951.91;5090009;28;20101;-50
2022/11/14 10:54:02;;;;;;;2.25;1.30;;;;;;;4.98;78.04;101951.34;5083567;28;20408;-48
2022/11/14 10:56:28;;;;;;;2.50;1.60;;;;;;;4.96;77.65;101949.81;5082378;22;20055;-49
2022/11/14 10:58:55;;;;;;;2.15;1.00;;;;;;;4.98;77.63;101959.28;5070170;28;20025;-47
2022/11/14 11:01:42;;;;;;;1.92;1.17;;;;;;;4.81;78.75;101961.84;5070320;28;20559;-49
2022/11/14 11:04:12;;;;;;;1.58;0.80;;;;;;;4.92;78.41;101957.22;5070328;28;20029;-48
2022/11/14 11:06:38;;;;;;;3.03;0.93;;;;;;;4.98;77.88;101956.63;5069299;28;20500;-50
2022/11/14 11:12:02;;;;;;;1.90;1.02;;;;;;;5.14;76.38;101965.84;5070676;28;20396;-49
2022/11/14 11:14:29;;;;;;;3.25;1.13;;;;;;;5.41;76.13;101962.41;5069937;28;20026;-49
2022/11/14 11:17:11;;;;;;;3.33;1.63;;;;;;;5.21;76.41;101946.53;5071015;28;20025;-51
2022/11/14 11:19:42;;;;;;;1.50;1.40;;;;;;;5.12;76.96;101960.69;5070443;28;20025;-50
2022/11/14 11:22:30;;;;;;;3.30;1.40;;;;;;;5.35;76.56;101963.00;5070097;28;20043;-49
2022/11/14 11:24:56;;;;;;;2.70;1.58;;;;;;;5.03;77.47;101967.66;5070428;28;20028;-50
2022/11/14 11:27:28;;;;;;;3.17;1.33;;;;;;;4.95;77.69;101956.94;5082488;28;20479;-48
2022/11/14 11:30:08;;;;;;;3.33;1.40;;;;;;;4.78;78.74;101955.00;5070350;28;20024;-47
2022/11/14 11:32:35;;;;;;;2.97;1.35;;;;;;;4.87;78.04;101959.44;5059884;28;20084;-46
2022/11/14 11:35:09;;;;;;;3.00;1.52;;;;;;;5.00;77.27;101954.69;5070894;28;20133;-46
2022/11/14 11:37:53;;;;;;;3.63;1.25;;;;;;;4.91;76.95;101955.53;5069619;28;20025;-46
2022/11/14 11:40:28;;;;;;;2.83;1.00;;;;;;;4.90;77.13;101953.88;5070770;28;20024;-46
2022/11/14 11:43:28;;;;;;;3.28;1.35;;;;;;;4.87;76.73;101945.34;5070837;28;20476;-46